Terminal Aerodrome Forecast
Issued by NWS

Home | Current Version | Previous Version | Text Only | Print | Product List | Glossary On
Versions: 1 2 3 4 5 6 7 8 9 10 11 12 13
379
FTUS42 KTBW 221135
TAFRSW
TAF
KRSW 221135Z 2212/2312 14004KT P6SM VCSH SCT025 SCT100
     FM221500 20006KT P6SM VCTS SCT030CB BKN050 BKN120
     FM221900 22007KT P6SM VCTS SCT035CB BKN120
     FM230100 VRB03KT P6SM FEW030 BKN250=

USA.gov is the U.S. government's official web portal to all federal, state and local government web resources and services.